sensor_id;sensor_type;location;lat;lon;timestamp;pressure;altitude;pressure_sealevel;temperature;humidity
20444;BME280;10381;53.730;10.010;2023-07-24T00:02:54;101216.22;;;16.57;100.00
20444;BME280;10381;53.730;10.010;2023-07-24T00:06:55;101205.88;;;16.62;100.00
20444;BME280;10381;53.730;10.010;2023-07-24T00:10:56;101211.38;;;16.60;100.00
20444;BME280;10381;53.730;10.010;2023-07-24T00:14:56;101214.03;;;16.52;100.00
20444;BME280;10381;53.730;10.010;2023-07-24T00:18:56;101219.06;;;16.55;100.00
20444;BME280;10381;53.730;10.010;2023-07-24T00:22:56;101213.38;;;16.50;100.00
20444;BME280;10381;53.730;10.010;2023-07-24T00:26:57;101220.22;;;16.45;100.00
20444;BME280;10381;53.730;10.010;2023-07-24T00:30:57;101217.19;;;16.31;100.00
20444;BME280;10381;53.730;10.010;2023-07-24T00:34:58;101225.69;;;16.27;100.00
20444;BME280;10381;53.730;10.010;2023-07-24T00:38:58;101231.16;;;16.17;100.00
20444;BME280;10381;53.730;10.010;2023-07-24T00:42:59;101253.78;;;16.31;100.00
20444;BME280;10381;53.730;10.010;2023-07-24T00:46:59;101259.91;;;16.23;100.00
20444;BME280;10381;53.730;10.010;2023-07-24T00:50:59;101255.38;;;16.15;100.00
20444;BME280;10381;53.730;10.010;2023-07-24T00:55:00;101268.28;;;16.28;100.00
20444;BME280;10381;53.730;10.010;2023-07-24T00:59:01;101267.81;;;16.33;100.00
20444;BME280;10381;53.730;10.010;2023-07-24T01:03:01;101274.03;;;16.42;100.00
20444;BME280;10381;53.730;10.010;2023-07-24T01:07:01;101276.03;;;16.39;100.00
20444;BME280;10381;53.730;10.010;2023-07-24T01:11:10;101267.50;;;16.44;100.00
20444;BME280;10381;53.730;10.010;2023-07-24T01:15:20;101272.72;;;16.46;100.00
20444;BME280;10381;53.730;10.010;2023-07-24T01:19:42;101262.50;;;16.41;100.00
20444;BME280;10381;53.730;10.010;2023-07-24T01:27:58;101259.34;;;16.46;100.00
20444;BME280;10381;53.730;10.010;2023-07-24T01:31:58;101252.81;;;16.48;100.00
20444;BME280;10381;53.730;10.010;2023-07-24T01:36:00;101254.34;;;16.51;100.00
20444;BME280;10381;53.730;10.010;2023-07-24T01:40:02;101264.38;;;16.57;100.00
20444;BME280;10381;53.730;10.010;2023-07-24T01:44:02;101256.03;;;16.68;100.00
20444;BME280;10381;53.730;10.010;2023-07-24T01:48:03;101239.81;;;16.61;100.00
20444;BME280;10381;53.730;10.010;2023-07-24T01:52:04;101227.59;;;16.59;100.00
20444;BME280;10381;53.730;10.010;2023-07-24T01:56:04;101233.28;;;16.64;100.00
20444;BME280;10381;53.730;10.010;2023-07-24T02:00:05;101235.31;;;16.62;100.00
20444;BME280;10381;53.730;10.010;2023-07-24T02:04:06;101226.44;;;16.53;100.00
20444;BME280;10381;53.730;10.010;2023-07-24T02:08:06;101235.28;;;16.46;100.00
20444;BME280;10381;53.730;10.010;2023-07-24T02:12:06;101234.28;;;16.55;100.00
20444;BME280;10381;53.730;10.010;2023-07-24T02:16:07;101231.25;;;16.50;100.00
20444;BME280;10381;53.730;10.010;2023-07-24T02:20:07;101237.75;;;16.47;100.00
20444;BME280;10381;53.730;10.010;2023-07-24T02:24:08;101241.25;;;16.39;100.00
20444;BME280;10381;53.730;10.010;2023-07-24T02:28:08;101242.09;;;16.40;100.00
20444;BME280;10381;53.730;10.010;2023-07-24T02:32:08;101250.63;;;16.44;100.00
20444;BME280;10381;53.730;10.010;2023-07-24T02:36:08;101254.00;;;16.46;100.00
20444;BME280;10381;53.730;10.010;2023-07-24T02:40:09;101255.16;;;16.43;100.00
20444;BME280;10381;53.730;10.010;2023-07-24T02:44:09;101259.63;;;16.34;100.00
20444;BME280;10381;53.730;10.010;2023-07-24T02:48:10;101260.16;;;16.46;100.00
20444;BME280;10381;53.730;10.010;2023-07-24T02:52:10;101257.16;;;16.49;100.00
20444;BME280;10381;53.730;10.010;2023-07-24T02:56:10;101242.75;;;16.34;100.00
20444;BME280;10381;53.730;10.010;2023-07-24T03:00:11;101234.00;;;16.15;100.00
20444;BME280;10381;53.730;10.010;2023-07-24T03:04:11;101241.19;;;16.15;100.00
20444;BME280;10381;53.730;10.010;2023-07-24T03:08:12;101257.75;;;16.27;100.00
20444;BME280;10381;53.730;10.010;2023-07-24T03:12:12;101250.44;;;16.29;100.00
20444;BME280;10381;53.730;10.010;2023-07-24T03:16:12;101258.81;;;16.42;100.00
20444;BME280;10381;53.730;10.010;2023-07-24T03:20:17;101248.66;;;16.54;100.00
20444;BME280;10381;53.730;10.010;2023-07-24T03:24:18;101228.59;;;16.58;100.00
20444;BME280;10381;53.730;10.010;2023-07-24T03:28:18;101212.38;;;16.51;100.00
20444;BME280;10381;53.730;10.010;2023-07-24T03:32:18;101199.34;;;16.56;100.00
20444;BME280;10381;53.730;10.010;2023-07-24T03:36:18;101191.50;;;16.55;100.00
20444;BME280;10381;53.730;10.010;2023-07-24T03:40:19;101179.97;;;16.63;100.00
20444;BME280;10381;53.730;10.010;2023-07-24T03:44:19;101167.28;;;16.65;100.00
20444;BME280;10381;53.730;10.010;2023-07-24T03:48:19;101151.03;;;16.66;100.00
20444;BME280;10381;53.730;10.010;2023-07-24T03:52:19;101142.50;;;16.63;100.00
20444;BME280;10381;53.730;10.010;2023-07-24T03:56:20;101145.84;;;16.73;100.00
20444;BME280;10381;53.730;10.010;2023-07-24T04:00:20;101133.69;;;16.87;100.00
20444;BME280;10381;53.730;10.010;2023-07-24T04:04:21;101131.00;;;16.95;100.00
20444;BME280;10381;53.730;10.010;2023-07-24T04:08:21;101134.84;;;16.92;100.00
20444;BME280;10381;53.730;10.010;2023-07-24T04:12:21;101117.94;;;16.92;100.00
20444;BME280;10381;53.730;10.010;2023-07-24T04:16:22;101108.75;;;16.94;100.00
20444;BME280;10381;53.730;10.010;2023-07-24T04:20:22;101114.44;;;16.91;100.00
20444;BME280;10381;53.730;10.010;2023-07-24T04:24:22;101085.69;;;16.93;100.00
20444;BME280;10381;53.730;10.010;2023-07-24T04:28:22;101091.53;;;16.89;100.00
20444;BME280;10381;53.730;10.010;2023-07-24T04:32:23;101093.53;;;16.87;100.00
20444;BME280;10381;53.730;10.010;2023-07-24T04:36:23;101092.19;;;16.91;100.00
20444;BME280;10381;53.730;10.010;2023-07-24T04:40:24;101087.19;;;16.96;100.00
20444;BME280;10381;53.730;10.010;2023-07-24T04:44:24;101074.31;;;16.91;100.00
20444;BME280;10381;53.730;10.010;2023-07-24T04:48:24;101083.00;;;16.93;100.00
20444;BME280;10381;53.730;10.010;2023-07-24T04:52:25;101066.13;;;16.85;100.00
20444;BME280;10381;53.730;10.010;2023-07-24T04:56:25;101062.63;;;16.84;100.00
20444;BME280;10381;53.730;10.010;2023-07-24T05:00:25;101056.56;;;16.90;100.00
20444;BME280;10381;53.730;10.010;2023-07-24T05:04:26;101041.34;;;16.91;100.00
20444;BME280;10381;53.730;10.010;2023-07-24T05:08:26;101033.56;;;17.12;100.00
20444;BME280;10381;53.730;10.010;2023-07-24T05:12:27;101013.34;;;17.10;100.00
20444;BME280;10381;53.730;10.010;2023-07-24T05:16:30;101002.56;;;17.26;100.00
20444;BME280;10381;53.730;10.010;2023-07-24T05:20:31;100990.44;;;17.46;100.00
20444;BME280;10381;53.730;10.010;2023-07-24T05:24:31;100937.75;;;17.62;100.00
20444;BME280;10381;53.730;10.010;2023-07-24T05:28:32;100895.25;;;17.59;100.00
20444;BME280;10381;53.730;10.010;2023-07-24T05:32:33;100904.38;;;17.96;100.00
20444;BME280;10381;53.730;10.010;2023-07-24T05:36:33;100793.53;;;18.18;100.00
20444;BME280;10381;53.730;10.010;2023-07-24T05:40:33;100763.66;;;18.36;100.00
20444;BME280;10381;53.730;10.010;2023-07-24T05:44:34;100755.66;;;18.21;100.00
20444;BME280;10381;53.730;10.010;2023-07-24T05:48:37;100755.56;;;18.00;100.00
20444;BME280;10381;53.730;10.010;2023-07-24T05:52:37;100772.91;;;17.89;100.00
20444;BME280;10381;53.730;10.010;2023-07-24T05:56:37;100776.31;;;17.68;100.00
20444;BME280;10381;53.730;10.010;2023-07-24T06:00:37;100784.13;;;17.70;100.00
20444;BME280;10381;53.730;10.010;2023-07-24T06:04:38;100775.66;;;17.66;100.00
20444;BME280;10381;53.730;10.010;2023-07-24T06:08:38;100772.50;;;17.77;100.00
20444;BME280;10381;53.730;10.010;2023-07-24T06:12:38;100766.84;;;17.80;100.00
20444;BME280;10381;53.730;10.010;2023-07-24T06:16:39;100777.19;;;17.98;100.00
20444;BME280;10381;53.730;10.010;2023-07-24T06:20:39;100769.19;;;18.64;100.00
20444;BME280;10381;53.730;10.010;2023-07-24T06:24:40;100687.81;;;18.79;100.00
20444;BME280;10381;53.730;10.010;2023-07-24T06:28:40;100638.94;;;18.68;100.00
20444;BME280;10381;53.730;10.010;2023-07-24T06:32:40;100632.06;;;18.38;100.00
20444;BME280;10381;53.730;10.010;2023-07-24T06:36:41;100634.69;;;18.52;100.00
20444;BME280;10381;53.730;10.010;2023-07-24T06:40:41;100627.94;;;18.20;100.00
20444;BME280;10381;53.730;10.010;2023-07-24T06:44:41;100644.06;;;18.05;100.00
20444;BME280;10381;53.730;10.010;2023-07-24T06:48:41;100640.09;;;18.01;100.00
20444;BME280;10381;53.730;10.010;2023-07-24T06:52:42;100649.03;;;18.08;100.00
20444;BME280;10381;53.730;10.010;2023-07-24T06:56:42;100644.91;;;18.06;100.00
20444;BME280;10381;53.730;10.010;2023-07-24T07:00:43;100626.69;;;18.01;100.00
20444;BME280;10381;53.730;10.010;2023-07-24T07:04:43;100630.13;;;17.95;100.00
20444;BME280;10381;53.730;10.010;2023-07-24T07:08:43;100635.19;;;18.05;100.00
20444;BME280;10381;53.730;10.010;2023-07-24T07:12:44;100622.53;;;17.99;100.00
20444;BME280;10381;53.730;10.010;2023-07-24T07:16:44;100616.13;;;18.15;100.00
20444;BME280;10381;53.730;10.010;2023-07-24T07:20:46;100608.69;;;17.95;100.00
20444;BME280;10381;53.730;10.010;2023-07-24T07:24:46;100622.00;;;17.88;100.00
20444;BME280;10381;53.730;10.010;2023-07-24T07:28:47;100614.09;;;17.80;100.00
20444;BME280;10381;53.730;10.010;2023-07-24T07:32:47;100614.41;;;18.07;100.00
20444;BME280;10381;53.730;10.010;2023-07-24T07:36:49;100597.53;;;18.28;100.00
20444;BME280;10381;53.730;10.010;2023-07-24T07:40:49;100572.91;;;18.89;100.00
20444;BME280;10381;53.730;10.010;2023-07-24T07:44:49;100510.38;;;18.73;100.00
20444;BME280;10381;53.730;10.010;2023-07-24T07:48:50;100495.84;;;19.18;100.00
20444;BME280;10381;53.730;10.010;2023-07-24T07:52:51;100490.91;;;19.28;100.00
20444;BME280;10381;53.730;10.010;2023-07-24T07:56:51;100484.31;;;18.61;100.00
20444;BME280;10381;53.730;10.010;2023-07-24T08:00:53;100482.63;;;18.88;100.00
20444;BME280;10381;53.730;10.010;2023-07-24T08:04:53;100462.88;;;18.96;100.00
20444;BME280;10381;53.730;10.010;2023-07-24T08:08:53;100439.38;;;19.04;100.00
20444;BME280;10381;53.730;10.010;2023-07-24T08:12:54;100443.94;;;18.76;100.00
20444;BME280;10381;53.730;10.010;2023-07-24T08:16:54;100453.16;;;18.66;100.00
20444;BME280;10381;53.730;10.010;2023-07-24T08:20:54;100465.63;;;18.46;100.00
20444;BME280;10381;53.730;10.010;2023-07-24T08:24:54;100446.88;;;18.81;100.00
20444;BME280;10381;53.730;10.010;2023-07-24T08:28:55;100461.56;;;18.85;100.00
20444;BME280;10381;53.730;10.010;2023-07-24T08:32:55;100435.72;;;18.77;100.00
20444;BME280;10381;53.730;10.010;2023-07-24T08:36:57;100441.28;;;19.10;100.00
20444;BME280;10381;53.730;10.010;2023-07-24T08:41:13;100421.13;;;18.86;100.00
20444;BME280;10381;53.730;10.010;2023-07-24T08:45:14;100435.66;;;19.05;100.00
20444;BME280;10381;53.730;10.010;2023-07-24T08:49:16;100418.03;;;19.44;100.00
20444;BME280;10381;53.730;10.010;2023-07-24T08:53:18;100362.03;;;19.54;100.00
20444;BME280;10381;53.730;10.010;2023-07-24T08:57:19;100370.38;;;19.05;100.00
20444;BME280;10381;53.730;10.010;2023-07-24T09:01:20;100411.69;;;19.04;100.00
20444;BME280;10381;53.730;10.010;2023-07-24T09:05:20;100396.38;;;18.98;100.00
20444;BME280;10381;53.730;10.010;2023-07-24T09:09:21;100389.72;;;19.55;100.00
20444;BME280;10381;53.730;10.010;2023-07-24T09:13:21;100329.59;;;20.09;100.00
20444;BME280;10381;53.730;10.010;2023-07-24T09:17:21;100295.72;;;19.88;100.00
20444;BME280;10381;53.730;10.010;2023-07-24T09:21:31;100278.31;;;19.97;100.00
20444;BME280;10381;53.730;10.010;2023-07-24T09:25:33;100300.84;;;20.16;100.00
20444;BME280;10381;53.730;10.010;2023-07-24T09:29:34;100254.84;;;20.38;100.00
20444;BME280;10381;53.730;10.010;2023-07-24T09:33:38;100236.84;;;20.32;100.00
20444;BME280;10381;53.730;10.010;2023-07-24T09:37:39;100249.81;;;19.56;100.00
20444;BME280;10381;53.730;10.010;2023-07-24T09:41:39;100257.63;;;20.18;100.00
20444;BME280;10381;53.730;10.010;2023-07-24T09:45:41;100244.63;;;20.53;100.00
20444;BME280;10381;53.730;10.010;2023-07-24T09:49:41;100213.72;;;20.76;100.00
20444;BME280;10381;53.730;10.010;2023-07-24T09:53:58;100190.38;;;20.18;100.00
20444;BME280;10381;53.730;10.010;2023-07-24T09:58:00;100220.31;;;20.28;100.00
20444;BME280;10381;53.730;10.010;2023-07-24T10:02:01;100193.25;;;20.23;100.00
20444;BME280;10381;53.730;10.010;2023-07-24T10:06:03;100170.63;;;20.37;100.00
20444;BME280;10381;53.730;10.010;2023-07-24T10:10:04;100172.56;;;20.94;100.00
20444;BME280;10381;53.730;10.010;2023-07-24T10:14:05;100117.38;;;20.46;100.00
20444;BME280;10381;53.730;10.010;2023-07-24T10:18:07;100139.06;;;20.58;100.00
20444;BME280;10381;53.730;10.010;2023-07-24T10:22:09;100136.16;;;20.21;100.00
20444;BME280;10381;53.730;10.010;2023-07-24T10:26:10;100176.88;;;20.25;100.00
20444;BME280;10381;53.730;10.010;2023-07-24T10:30:10;100187.56;;;20.83;100.00
20444;BME280;10381;53.730;10.010;2023-07-24T10:34:10;100143.41;;;20.52;100.00
20444;BME280;10381;53.730;10.010;2023-07-24T10:38:13;100147.59;;;20.80;100.00
20444;BME280;10381;53.730;10.010;2023-07-24T10:42:13;100139.91;;;21.77;100.00
20444;BME280;10381;53.730;10.010;2023-07-24T10:46:16;100107.00;;;20.81;100.00
20444;BME280;10381;53.730;10.010;2023-07-24T10:50:16;100116.31;;;20.85;100.00
20444;BME280;10381;53.730;10.010;2023-07-24T10:54:20;100079.72;;;21.21;100.00
20444;BME280;10381;53.730;10.010;2023-07-24T10:58:24;100102.22;;;21.52;100.00
20444;BME280;10381;53.730;10.010;2023-07-24T11:02:25;100069.69;;;21.84;100.00
20444;BME280;10381;53.730;10.010;2023-07-24T11:06:25;100068.06;;;21.64;100.00
20444;BME280;10381;53.730;10.010;2023-07-24T11:10:26;100054.72;;;21.33;100.00
20444;BME280;10381;53.730;10.010;2023-07-24T11:14:27;100064.59;;;21.45;100.00
20444;BME280;10381;53.730;10.010;2023-07-24T11:18:27;100070.94;;;21.26;100.00
20444;BME280;10381;53.730;10.010;2023-07-24T11:22:28;100075.81;;;21.36;100.00
20444;BME280;10381;53.730;10.010;2023-07-24T11:26:29;100056.06;;;21.23;100.00
20444;BME280;10381;53.730;10.010;2023-07-24T11:30:29;100056.41;;;21.70;100.00
20444;BME280;10381;53.730;10.010;2023-07-24T11:34:29;100039.41;;;20.90;100.00
20444;BME280;10381;53.730;10.010;2023-07-24T11:38:30;100069.13;;;22.12;100.00
20444;BME280;10381;53.730;10.010;2023-07-24T11:42:30;100009.06;;;21.75;100.00
20444;BME280;10381;53.730;10.010;2023-07-24T11:46:31;99995.97;;;21.60;100.00
20444;BME280;10381;53.730;10.010;2023-07-24T11:50:44;100018.66;;;22.01;100.00
20444;BME280;10381;53.730;10.010;2023-07-24T11:54:55;99979.78;;;21.48;100.00
20444;BME280;10381;53.730;10.010;2023-07-24T11:58:57;99969.13;;;21.53;100.00
20444;BME280;10381;53.730;10.010;2023-07-24T12:03:08;99959.88;;;21.91;100.00
20444;BME280;10381;53.730;10.010;2023-07-24T12:07:09;99954.41;;;21.67;100.00
20444;BME280;10381;53.730;10.010;2023-07-24T12:11:18;99934.94;;;22.19;100.00
20444;BME280;10381;53.730;10.010;2023-07-24T12:15:18;99924.69;;;22.51;100.00
20444;BME280;10381;53.730;10.010;2023-07-24T12:19:19;99899.56;;;22.51;100.00
20444;BME280;10381;53.730;10.010;2023-07-24T12:23:19;99898.94;;;22.84;100.00
20444;BME280;10381;53.730;10.010;2023-07-24T12:27:19;99896.81;;;22.98;100.00
20444;BME280;10381;53.730;10.010;2023-07-24T12:31:19;99902.56;;;23.30;100.00
20444;BME280;10381;53.730;10.010;2023-07-24T12:35:20;99900.22;;;22.11;100.00
20444;BME280;10381;53.730;10.010;2023-07-24T12:39:20;99916.47;;;23.51;100.00
20444;BME280;10381;53.730;10.010;2023-07-24T12:43:20;99875.22;;;23.72;100.00
20444;BME280;10381;53.730;10.010;2023-07-24T12:47:21;99854.31;;;23.51;100.00
20444;BME280;10381;53.730;10.010;2023-07-24T12:51:21;99844.91;;;23.25;100.00
20444;BME280;10381;53.730;10.010;2023-07-24T12:55:21;99824.22;;;23.47;100.00
20444;BME280;10381;53.730;10.010;2023-07-24T12:59:21;99810.38;;;23.27;100.00
20444;BME280;10381;53.730;10.010;2023-07-24T13:03:22;99797.63;;;24.67;100.00
20444;BME280;10381;53.730;10.010;2023-07-24T13:07:22;99734.06;;;24.75;100.00
20444;BME280;10381;53.730;10.010;2023-07-24T13:11:22;99680.94;;;23.81;100.00
20444;BME280;10381;53.730;10.010;2023-07-24T13:15:23;99660.59;;;24.66;100.00
20444;BME280;10381;53.730;10.010;2023-07-24T13:19:24;99638.78;;;24.83;100.00
20444;BME280;10381;53.730;10.010;2023-07-24T13:23:24;99633.44;;;23.90;100.00
20444;BME280;10381;53.730;10.010;2023-07-24T13:27:25;99636.84;;;23.25;100.00
20444;BME280;10381;53.730;10.010;2023-07-24T13:31:25;99653.16;;;22.39;100.00
20444;BME280;10381;53.730;10.010;2023-07-24T13:35:25;99660.19;;;24.80;100.00
20444;BME280;10381;53.730;10.010;2023-07-24T13:39:25;99656.19;;;23.72;100.00
20444;BME280;10381;53.730;10.010;2023-07-24T13:43:29;99644.50;;;23.50;100.00
20444;BME280;10381;53.730;10.010;2023-07-24T13:47:29;99651.84;;;22.70;100.00
20444;BME280;10381;53.730;10.010;2023-07-24T13:51:30;99669.63;;;22.66;100.00
20444;BME280;10381;53.730;10.010;2023-07-24T13:55:30;99671.25;;;22.67;100.00
20444;BME280;10381;53.730;10.010;2023-07-24T13:59:31;99641.59;;;24.39;100.00
20444;BME280;10381;53.730;10.010;2023-07-24T14:03:31;99618.34;;;23.33;100.00
20444;BME280;10381;53.730;10.010;2023-07-24T14:07:31;99617.13;;;23.07;100.00
20444;BME280;10381;53.730;10.010;2023-07-24T14:11:32;99615.47;;;23.23;100.00
20444;BME280;10381;53.730;10.010;2023-07-24T14:15:32;99607.44;;;22.94;100.00
20444;BME280;10381;53.730;10.010;2023-07-24T14:19:32;99607.09;;;22.57;100.00
20444;BME280;10381;53.730;10.010;2023-07-24T14:23:33;99604.00;;;22.82;100.00
20444;BME280;10381;53.730;10.010;2023-07-24T14:27:33;99597.13;;;22.74;100.00
20444;BME280;10381;53.730;10.010;2023-07-24T14:31:33;99592.44;;;22.70;100.00
20444;BME280;10381;53.730;10.010;2023-07-24T14:35:34;99603.47;;;22.35;100.00
20444;BME280;10381;53.730;10.010;2023-07-24T14:39:34;99587.78;;;22.82;100.00
20444;BME280;10381;53.730;10.010;2023-07-24T14:43:34;99606.28;;;22.57;100.00
20444;BME280;10381;53.730;10.010;2023-07-24T14:47:34;99635.94;;;21.87;100.00
20444;BME280;10381;53.730;10.010;2023-07-24T14:51:35;99641.53;;;21.98;100.00
20444;BME280;10381;53.730;10.010;2023-07-24T14:55:35;99656.94;;;21.74;100.00
20444;BME280;10381;53.730;10.010;2023-07-24T14:59:35;99692.06;;;21.20;100.00
20444;BME280;10381;53.730;10.010;2023-07-24T15:03:36;99722.16;;;21.28;100.00
20444;BME280;10381;53.730;10.010;2023-07-24T15:07:36;99777.75;;;21.11;100.00
20444;BME280;10381;53.730;10.010;2023-07-24T15:11:36;99835.72;;;20.83;100.00
20444;BME280;10381;53.730;10.010;2023-07-24T15:15:36;99872.38;;;20.66;100.00
20444;BME280;10381;53.730;10.010;2023-07-24T15:19:37;99903.75;;;20.72;100.00
20444;BME280;10381;53.730;10.010;2023-07-24T15:23:37;99865.88;;;20.49;100.00
20444;BME280;10381;53.730;10.010;2023-07-24T15:27:38;99921.59;;;20.23;100.00
20444;BME280;10381;53.730;10.010;2023-07-24T15:31:39;100064.34;;;18.78;100.00
20444;BME280;10381;53.730;10.010;2023-07-24T15:35:40;101191.63;;;13.34;100.00
20444;BME280;10381;53.730;10.010;2023-07-24T15:39:41;101092.00;;;13.46;100.00
20444;BME280;10381;53.730;10.010;2023-07-24T15:43:41;101096.38;;;14.11;100.00
20444;BME280;10381;53.730;10.010;2023-07-24T15:47:41;101070.78;;;14.72;100.00
20444;BME280;10381;53.730;10.010;2023-07-24T15:51:42;101050.03;;;15.09;100.00
20444;BME280;10381;53.730;10.010;2023-07-24T15:55:42;101034.59;;;15.29;100.00
20444;BME280;10381;53.730;10.010;2023-07-24T15:59:43;101059.66;;;15.71;100.00
20444;BME280;10381;53.730;10.010;2023-07-24T16:03:44;101048.66;;;15.82;100.00
20444;BME280;10381;53.730;10.010;2023-07-24T16:07:45;101059.19;;;15.92;100.00
20444;BME280;10381;53.730;10.010;2023-07-24T16:11:46;101056.22;;;16.03;100.00
20444;BME280;10381;53.730;10.010;2023-07-24T16:15:47;101059.56;;;16.05;100.00
20444;BME280;10381;53.730;10.010;2023-07-24T16:19:47;101077.25;;;15.98;100.00
20444;BME280;10381;53.730;10.010;2023-07-24T16:23:47;101065.53;;;15.83;100.00
20444;BME280;10381;53.730;10.010;2023-07-24T16:27:47;101056.53;;;15.92;100.00
20444;BME280;10381;53.730;10.010;2023-07-24T16:31:48;101055.84;;;15.73;100.00
20444;BME280;10381;53.730;10.010;2023-07-24T16:35:48;101067.94;;;15.68;100.00
20444;BME280;10381;53.730;10.010;2023-07-24T16:39:48;101085.13;;;15.65;100.00
20444;BME280;10381;53.730;10.010;2023-07-24T16:43:49;101093.81;;;15.59;100.00
20444;BME280;10381;53.730;10.010;2023-07-24T16:47:49;101091.13;;;15.59;100.00
20444;BME280;10381;53.730;10.010;2023-07-24T16:51:49;101093.16;;;15.65;100.00
20444;BME280;10381;53.730;10.010;2023-07-24T16:55:49;101082.78;;;15.62;100.00
20444;BME280;10381;53.730;10.010;2023-07-24T16:59:50;101065.75;;;15.63;100.00
20444;BME280;10381;53.730;10.010;2023-07-24T17:03:50;101042.84;;;15.44;100.00
20444;BME280;10381;53.730;10.010;2023-07-24T17:07:51;101023.97;;;15.46;100.00
20444;BME280;10381;53.730;10.010;2023-07-24T17:11:51;100993.97;;;15.52;100.00
20444;BME280;10381;53.730;10.010;2023-07-24T17:15:52;100984.81;;;15.63;100.00
20444;BME280;10381;53.730;10.010;2023-07-24T17:19:52;100992.25;;;15.34;100.00
20444;BME280;10381;53.730;10.010;2023-07-24T17:23:52;101018.66;;;15.03;100.00
20444;BME280;10381;53.730;10.010;2023-07-24T17:27:53;101025.69;;;15.12;100.00
20444;BME280;10381;53.730;10.010;2023-07-24T17:31:53;101027.94;;;15.25;100.00
20444;BME280;10381;53.730;10.010;2023-07-24T17:35:53;101028.56;;;15.19;100.00
20444;BME280;10381;53.730;10.010;2023-07-24T17:39:54;101026.47;;;15.05;100.00
20444;BME280;10381;53.730;10.010;2023-07-24T17:43:54;101027.84;;;15.09;100.00
20444;BME280;10381;53.730;10.010;2023-07-24T17:47:54;101021.63;;;15.00;100.00
20444;BME280;10381;53.730;10.010;2023-07-24T17:51:54;101035.78;;;15.01;100.00
20444;BME280;10381;53.730;10.010;2023-07-24T17:55:55;101035.44;;;14.96;100.00
20444;BME280;10381;53.730;10.010;2023-07-24T17:59:55;101036.13;;;14.98;100.00
20444;BME280;10381;53.730;10.010;2023-07-24T18:03:55;101028.47;;;15.03;100.00
20444;BME280;10381;53.730;10.010;2023-07-24T18:07:56;101006.69;;;15.16;100.00
20444;BME280;10381;53.730;10.010;2023-07-24T18:11:56;101008.84;;;15.12;100.00
20444;BME280;10381;53.730;10.010;2023-07-24T18:15:56;101003.94;;;14.99;100.00
20444;BME280;10381;53.730;10.010;2023-07-24T18:19:56;101001.31;;;15.07;100.00
20444;BME280;10381;53.730;10.010;2023-07-24T18:23:57;100984.25;;;15.00;100.00
20444;BME280;10381;53.730;10.010;2023-07-24T18:27:57;100974.06;;;14.96;100.00
20444;BME280;10381;53.730;10.010;2023-07-24T18:31:58;100969.72;;;14.86;100.00
20444;BME280;10381;53.730;10.010;2023-07-24T18:35:58;100985.34;;;14.81;100.00
20444;BME280;10381;53.730;10.010;2023-07-24T18:39:59;100985.88;;;14.85;100.00
20444;BME280;10381;53.730;10.010;2023-07-24T18:43:59;100983.34;;;14.83;100.00
20444;BME280;10381;53.730;10.010;2023-07-24T18:47:59;100986.69;;;14.85;100.00
20444;BME280;10381;53.730;10.010;2023-07-24T18:52:01;100995.34;;;14.79;100.00
20444;BME280;10381;53.730;10.010;2023-07-24T18:56:01;101010.97;;;14.74;100.00
20444;BME280;10381;53.730;10.010;2023-07-24T19:00:03;101017.53;;;14.80;100.00
20444;BME280;10381;53.730;10.010;2023-07-24T19:04:03;101017.53;;;14.80;100.00
20444;BME280;10381;53.730;10.010;2023-07-24T19:08:03;101020.66;;;14.75;100.00
20444;BME280;10381;53.730;10.010;2023-07-24T19:12:04;101027.66;;;14.76;100.00
20444;BME280;10381;53.730;10.010;2023-07-24T19:16:04;101027.81;;;14.75;100.00
20444;BME280;10381;53.730;10.010;2023-07-24T19:20:08;101030.84;;;14.80;100.00
20444;BME280;10381;53.730;10.010;2023-07-24T19:24:09;101034.66;;;14.77;100.00
20444;BME280;10381;53.730;10.010;2023-07-24T19:28:09;101045.34;;;14.77;100.00
20444;BME280;10381;53.730;10.010;2023-07-24T19:32:10;101051.34;;;14.79;100.00
20444;BME280;10381;53.730;10.010;2023-07-24T19:36:10;101055.84;;;14.79;100.00
20444;BME280;10381;53.730;10.010;2023-07-24T19:40:10;101057.53;;;14.80;100.00
20444;BME280;10381;53.730;10.010;2023-07-24T19:44:11;101057.66;;;14.78;100.00
20444;BME280;10381;53.730;10.010;2023-07-24T19:48:11;101069.16;;;14.79;100.00
20444;BME280;10381;53.730;10.010;2023-07-24T19:52:12;101082.88;;;14.84;100.00
20444;BME280;10381;53.730;10.010;2023-07-24T19:56:12;101089.06;;;14.84;100.00
20444;BME280;10381;53.730;10.010;2023-07-24T20:00:12;101094.09;;;14.87;100.00
20444;BME280;10381;53.730;10.010;2023-07-24T20:04:13;101106.63;;;14.95;100.00
20444;BME280;10381;53.730;10.010;2023-07-24T20:08:13;101121.03;;;15.02;100.00
20444;BME280;10381;53.730;10.010;2023-07-24T20:12:13;101120.50;;;14.99;100.00
20444;BME280;10381;53.730;10.010;2023-07-24T20:16:14;101119.75;;;14.88;100.00
20444;BME280;10381;53.730;10.010;2023-07-24T20:20:19;101095.94;;;14.69;100.00
20444;BME280;10381;53.730;10.010;2023-07-24T20:24:19;101088.94;;;14.68;100.00
20444;BME280;10381;53.730;10.010;2023-07-24T20:28:20;101093.44;;;14.67;100.00
20444;BME280;10381;53.730;10.010;2023-07-24T20:32:23;101095.56;;;14.64;100.00
20444;BME280;10381;53.730;10.010;2023-07-24T20:36:24;101108.66;;;14.57;100.00